createdAt,value
2019-02-24T00:00:21.393Z,8.40
2019-02-24T00:02:50.464Z,8.30
2019-02-24T00:05:19.823Z,8.30
2019-02-24T00:07:48.825Z,8.30
2019-02-24T00:10:17.972Z,8.30
2019-02-24T00:12:46.970Z,8.30
2019-02-24T00:15:16.116Z,8.30
2019-02-24T00:17:45.270Z,8.30
2019-02-24T00:20:14.394Z,8.30
2019-02-24T00:22:43.556Z,8.20
2019-02-24T00:25:12.614Z,8.30
2019-02-24T00:27:41.963Z,8.30
2019-02-24T00:30:12.327Z,8.20
2019-02-24T00:32:41.522Z,8.20
2019-02-24T00:35:10.625Z,8.20
2019-02-24T00:37:39.610Z,8.20
2019-02-24T00:40:08.691Z,8.20
2019-02-24T00:42:37.726Z,8.20
2019-02-24T00:45:07.038Z,8.10
2019-02-24T00:47:36.094Z,8.10
2019-02-24T00:50:05.423Z,8.10
2019-02-24T00:52:34.450Z,8.10
2019-02-24T00:55:03.569Z,8.10
2019-02-24T00:57:32.785Z,8.00
2019-02-24T01:00:01.822Z,8.00
2019-02-24T01:02:30.943Z,8.00
2019-02-24T01:05:00.545Z,7.90
2019-02-24T01:07:29.635Z,8.00
2019-02-24T01:09:58.743Z,7.90
2019-02-24T01:12:28.104Z,7.90
2019-02-24T01:14:57.572Z,7.90
2019-02-24T01:17:27.798Z,7.80
2019-02-24T01:19:57.198Z,7.80
2019-02-24T01:22:26.239Z,7.80
2019-02-24T01:24:55.348Z,7.80
2019-02-24T01:27:24.504Z,7.80
2019-02-24T01:29:53.725Z,7.70
2019-02-24T01:32:23.065Z,7.70
2019-02-24T01:34:52.126Z,7.70
2019-02-24T01:37:21.121Z,7.70
2019-02-24T01:39:50.273Z,7.70
2019-02-24T01:42:19.422Z,7.60
2019-02-24T01:44:49.927Z,7.70
2019-02-24T01:47:18.840Z,7.70
2019-02-24T01:49:47.880Z,7.70
2019-02-24T01:52:16.859Z,7.70
2019-02-24T01:54:45.768Z,7.70
2019-02-24T01:57:15.671Z,7.70
2019-02-24T01:59:44.981Z,7.60
2019-02-24T02:02:14.467Z,7.60
2019-02-24T02:04:43.876Z,7.60
2019-02-24T02:07:12.952Z,7.60
2019-02-24T02:09:42.269Z,7.60
2019-02-24T02:12:11.273Z,7.60
2019-02-24T02:14:40.345Z,7.60
2019-02-24T02:17:09.542Z,7.60
2019-02-24T02:19:38.489Z,7.50
2019-02-24T02:22:07.461Z,7.50
2019-02-24T02:24:36.774Z,7.50
2019-02-24T02:27:07.790Z,7.50
2019-02-24T02:29:37.116Z,7.50
2019-02-24T02:32:06.214Z,7.50
2019-02-24T02:34:35.143Z,7.50
2019-02-24T02:37:04.272Z,7.50
2019-02-24T02:39:33.492Z,7.50
2019-02-24T02:42:02.597Z,7.50
2019-02-24T02:44:31.797Z,7.60
2019-02-24T02:47:01.053Z,7.50
2019-02-24T02:49:30.061Z,7.50
2019-02-24T02:51:59.132Z,7.50
2019-02-24T02:54:28.785Z,7.50
2019-02-24T02:56:58.163Z,7.50
2019-02-24T02:59:28.979Z,7.50
2019-02-24T03:01:58.404Z,7.50
2019-02-24T03:04:27.389Z,7.50
2019-02-24T03:07:24.650Z,7.50
2019-02-24T03:09:53.951Z,7.50
2019-02-24T03:12:22.958Z,7.50
2019-02-24T03:14:52.003Z,7.50
2019-02-24T03:17:20.980Z,7.50
2019-02-24T03:19:50.829Z,7.50
2019-02-24T03:22:19.869Z,7.50
2019-02-24T03:24:48.966Z,7.40
2019-02-24T03:27:18.003Z,7.40
2019-02-24T03:29:47.054Z,7.40
2019-02-24T03:32:16.378Z,7.40
2019-02-24T03:34:45.979Z,7.40
2019-02-24T03:37:15.052Z,7.40
2019-02-24T03:39:44.445Z,7.40
2019-02-24T03:42:13.916Z,7.40
2019-02-24T03:44:42.952Z,7.40
2019-02-24T03:47:12.031Z,7.40
2019-02-24T03:49:41.681Z,7.40
2019-02-24T03:52:10.709Z,7.40
2019-02-24T03:54:40.079Z,7.40
2019-02-24T03:57:09.439Z,7.40
2019-02-24T03:59:38.485Z,7.40
2019-02-24T04:02:07.856Z,7.40
2019-02-24T04:04:36.909Z,7.40
2019-02-24T04:07:06.289Z,7.40
2019-02-24T04:09:35.733Z,7.40
2019-02-24T04:12:04.673Z,7.40
2019-02-24T04:14:34.026Z,7.40
2019-02-24T04:17:03.727Z,8.40
2019-02-24T04:19:32.866Z,7.40
2019-02-24T04:22:02.310Z,7.40
2019-02-24T04:24:31.356Z,7.40
2019-02-24T04:27:00.426Z,7.40
2019-02-24T04:29:29.744Z,7.40
2019-02-24T04:31:59.830Z,7.40
2019-02-24T04:34:30.525Z,7.40
2019-02-24T04:36:59.587Z,7.40
2019-02-24T04:39:28.664Z,7.40
2019-02-24T04:41:57.831Z,7.30
2019-02-24T04:44:26.909Z,7.30
2019-02-24T04:46:56.043Z,7.30
2019-02-24T04:49:25.534Z,7.30
2019-02-24T04:51:54.606Z,7.30
2019-02-24T04:54:23.690Z,7.30
2019-02-24T04:56:52.825Z,7.30
2019-02-24T04:59:22.503Z,7.30
2019-02-24T05:01:52.162Z,7.30
2019-02-24T05:04:21.752Z,7.30
2019-02-24T05:06:51.622Z,7.30
2019-02-24T05:09:20.667Z,7.30
2019-02-24T05:11:49.642Z,7.30
2019-02-24T05:14:18.587Z,7.30
2019-02-24T05:16:47.752Z,7.30
2019-02-24T05:19:16.820Z,7.20
2019-02-24T05:21:46.192Z,7.30
2019-02-24T05:24:15.251Z,7.20
2019-02-24T05:26:44.567Z,7.30
2019-02-24T05:29:13.558Z,7.20
2019-02-24T05:31:42.628Z,7.20
2019-02-24T05:34:11.764Z,7.20
2019-02-24T05:36:40.718Z,7.20
2019-02-24T05:39:09.872Z,7.20
2019-02-24T05:41:39.570Z,7.20
2019-02-24T05:44:09.662Z,7.20
2019-02-24T05:46:41.451Z,7.10
2019-02-24T05:49:10.527Z,7.10
2019-02-24T05:51:39.519Z,7.00
2019-02-24T05:54:09.092Z,7.00
2019-02-24T05:56:38.058Z,7.00
2019-02-24T05:59:07.084Z,7.00
2019-02-24T06:01:36.087Z,7.00
2019-02-24T06:04:05.132Z,7.00
2019-02-24T06:06:35.631Z,7.00
2019-02-24T06:09:05.868Z,7.00
2019-02-24T06:11:35.424Z,7.00
2019-02-24T06:14:04.434Z,7.00
2019-02-24T06:16:33.775Z,7.00
2019-02-24T06:19:02.846Z,7.00
2019-02-24T06:21:31.937Z,7.00
2019-02-24T06:24:01.139Z,7.00
2019-02-24T06:26:30.576Z,7.10
2019-02-24T06:28:59.676Z,7.00
2019-02-24T06:31:28.790Z,7.10
2019-02-24T06:33:58.149Z,7.10
2019-02-24T06:36:27.246Z,7.10
2019-02-24T06:38:56.239Z,7.10
2019-02-24T06:41:25.265Z,7.10
2019-02-24T06:43:54.233Z,7.10
2019-02-24T06:46:23.415Z,7.20
2019-02-24T06:48:52.811Z,7.20
2019-02-24T06:51:22.455Z,7.20
2019-02-24T06:53:51.835Z,7.30
2019-02-24T06:56:20.968Z,7.30
2019-02-24T06:58:50.342Z,7.30
2019-02-24T07:01:19.608Z,7.40
2019-02-24T07:03:49.149Z,7.60
2019-02-24T07:06:18.267Z,8.00
2019-02-24T07:08:47.479Z,8.50
2019-02-24T07:11:16.553Z,8.60
2019-02-24T07:13:46.010Z,8.50
2019-02-24T07:16:15.448Z,8.40
2019-02-24T07:18:44.830Z,8.30
2019-02-24T07:21:14.025Z,8.40
2019-02-24T07:23:43.431Z,8.40
2019-02-24T07:26:12.880Z,8.50
2019-02-24T07:28:42.599Z,8.60
2019-02-24T07:31:11.754Z,8.60
2019-02-24T07:33:41.286Z,8.60
2019-02-24T07:36:10.789Z,8.50
2019-02-24T07:38:39.764Z,8.70
2019-02-24T07:41:08.974Z,9.00
2019-02-24T07:43:38.014Z,9.00
2019-02-24T07:46:07.087Z,9.30
2019-02-24T07:48:36.177Z,9.60
2019-02-24T07:51:05.212Z,9.60
2019-02-24T07:53:34.215Z,9.50
2019-02-24T07:56:03.270Z,9.30
2019-02-24T07:58:32.252Z,9.20
2019-02-24T08:01:01.311Z,9.10
2019-02-24T08:03:30.797Z,9.00
2019-02-24T08:06:00.327Z,8.80
2019-02-24T08:08:29.938Z,8.80
2019-02-24T08:10:59.188Z,8.70
2019-02-24T08:13:28.759Z,8.70
2019-02-24T08:15:58.026Z,8.60
2019-02-24T08:18:27.245Z,8.60
2019-02-24T08:20:56.600Z,8.60
2019-02-24T08:23:25.923Z,8.70
2019-02-24T08:25:55.592Z,8.70
2019-02-24T08:28:24.784Z,8.80
2019-02-24T08:30:54.101Z,8.90
2019-02-24T08:33:23.430Z,9.00
2019-02-24T08:35:53.061Z,9.10
2019-02-24T08:38:22.239Z,9.10
2019-02-24T08:40:51.559Z,9.10
2019-02-24T08:43:20.908Z,9.10
2019-02-24T08:45:50.278Z,9.10
2019-02-24T08:48:19.792Z,9.10
2019-02-24T08:50:51.535Z,9.20
2019-02-24T08:53:20.598Z,9.20
2019-02-24T08:55:51.053Z,9.30
2019-02-24T08:58:21.234Z,9.40
2019-02-24T09:00:51.403Z,9.50
2019-02-24T09:03:20.788Z,9.50
2019-02-24T09:05:49.891Z,9.60
2019-02-24T09:08:19.023Z,9.70
2019-02-24T09:10:48.730Z,9.70
2019-02-24T09:13:18.265Z,9.80
2019-02-24T09:15:47.288Z,9.80
2019-02-24T09:18:16.569Z,9.90
2019-02-24T09:20:45.882Z,10.00
2019-02-24T09:23:15.173Z,10.10
2019-02-24T09:25:44.491Z,10.20
2019-02-24T09:28:13.801Z,10.20
2019-02-24T09:30:43.486Z,10.30
2019-02-24T09:33:12.839Z,10.40
2019-02-24T09:35:42.473Z,10.50
2019-02-24T09:38:11.967Z,10.50
2019-02-24T09:40:41.145Z,10.60
2019-02-24T09:43:10.422Z,10.60
2019-02-24T09:45:39.797Z,10.70
2019-02-24T09:48:09.065Z,10.90
2019-02-24T09:50:38.632Z,10.90
2019-02-24T09:53:08.010Z,11.00
2019-02-24T09:55:37.414Z,11.00
2019-02-24T09:58:06.795Z,11.00
2019-02-24T10:00:36.764Z,11.10
2019-02-24T10:03:06.555Z,11.20
2019-02-24T10:05:35.835Z,11.30
2019-02-24T10:08:05.122Z,11.40
2019-02-24T10:10:34.349Z,11.60
2019-02-24T10:13:03.993Z,11.60
2019-02-24T10:15:33.151Z,11.70
2019-02-24T10:18:02.394Z,11.70
2019-02-24T10:20:31.619Z,11.80
2019-02-24T10:23:01.041Z,11.90
2019-02-24T10:25:30.301Z,12.00
2019-02-24T10:27:59.633Z,12.00
2019-02-24T10:30:28.844Z,12.10
2019-02-24T10:32:58.222Z,12.20
2019-02-24T10:35:27.795Z,12.30
2019-02-24T10:37:57.051Z,12.40
2019-02-24T10:40:26.295Z,12.50
2019-02-24T10:42:55.659Z,12.60
2019-02-24T10:45:24.909Z,12.60
2019-02-24T10:47:54.234Z,12.70
2019-02-24T10:50:23.535Z,12.80
2019-02-24T10:52:54.123Z,12.90
2019-02-24T10:55:23.707Z,12.90
2019-02-24T10:57:52.891Z,13.00
2019-02-24T11:00:23.120Z,13.10
2019-02-24T11:02:52.464Z,13.10
2019-02-24T11:05:21.978Z,13.30
2019-02-24T11:07:51.636Z,13.30
2019-02-24T11:10:21.189Z,13.40
2019-02-24T11:12:50.329Z,13.50
2019-02-24T11:15:19.574Z,13.50
2019-02-24T11:17:48.794Z,13.60
2019-02-24T11:20:17.886Z,13.70
2019-02-24T11:22:47.402Z,13.80
2019-02-24T11:25:17.027Z,13.90
2019-02-24T11:27:46.456Z,14.00
2019-02-24T11:30:15.736Z,14.10
2019-02-24T11:32:45.179Z,14.10
2019-02-24T11:35:14.476Z,14.10
2019-02-24T11:37:43.693Z,14.20
2019-02-24T11:40:15.265Z,14.30
2019-02-24T11:42:44.510Z,14.40
2019-02-24T11:45:13.911Z,14.50
2019-02-24T11:47:43.352Z,14.60
2019-02-24T11:50:12.893Z,14.60
2019-02-24T11:52:42.693Z,14.80
2019-02-24T11:55:12.132Z,14.80
2019-02-24T11:57:41.682Z,14.90
2019-02-24T12:00:11.288Z,14.90
2019-02-24T12:02:41.812Z,15.00
2019-02-24T12:05:12.115Z,15.00
2019-02-24T12:07:41.347Z,15.10
2019-02-24T12:10:10.718Z,15.10
2019-02-24T12:12:40.042Z,15.20
2019-02-24T12:15:10.062Z,15.20
2019-02-24T12:17:40.142Z,15.30
2019-02-24T12:20:10.681Z,15.40
2019-02-24T12:22:40.533Z,15.50
2019-02-24T12:25:09.792Z,15.60
2019-02-24T12:27:39.649Z,15.70
2019-02-24T12:30:10.148Z,15.70
2019-02-24T12:32:39.399Z,15.60
2019-02-24T12:35:08.999Z,15.70
2019-02-24T12:37:38.225Z,15.70
2019-02-24T12:40:08.302Z,15.70
2019-02-24T12:42:37.606Z,15.70
2019-02-24T12:45:18.868Z,15.80
2019-02-24T12:47:47.704Z,15.90
2019-02-24T12:50:17.095Z,15.90
2019-02-24T12:52:46.310Z,16.00
2019-02-24T12:55:15.556Z,16.00
2019-02-24T12:57:45.175Z,16.00
2019-02-24T13:00:17.558Z,16.00
2019-02-24T13:02:47.174Z,16.10
2019-02-24T13:05:17.524Z,16.10
2019-02-24T13:07:47.486Z,16.10
2019-02-24T13:10:16.812Z,16.20
2019-02-24T13:12:46.138Z,16.30
2019-02-24T13:15:15.463Z,16.30
2019-02-24T13:17:44.791Z,16.30
2019-02-24T13:20:14.822Z,16.40
2019-02-24T13:22:44.386Z,16.40
2019-02-24T13:25:13.789Z,16.40
2019-02-24T13:27:43.049Z,16.50
2019-02-24T13:30:12.914Z,16.50
2019-02-24T13:32:42.163Z,16.50
2019-02-24T13:35:12.234Z,16.50
2019-02-24T13:37:41.902Z,16.50
2019-02-24T13:40:11.575Z,16.50
2019-02-24T13:42:40.873Z,16.50
2019-02-24T13:45:12.132Z,16.50
2019-02-24T13:47:41.914Z,16.50
2019-02-24T13:50:11.216Z,16.60
2019-02-24T13:52:40.465Z,16.60
2019-02-24T13:55:10.909Z,16.60
2019-02-24T13:57:40.132Z,16.60
2019-02-24T14:00:12.759Z,16.70
2019-02-24T14:02:42.195Z,16.70
2019-02-24T14:05:11.388Z,16.80
2019-02-24T14:07:40.643Z,16.80
2019-02-24T14:10:11.175Z,16.80
2019-02-24T14:12:40.582Z,16.80
2019-02-24T14:15:10.316Z,16.80
2019-02-24T14:17:39.790Z,16.80
2019-02-24T14:20:10.506Z,16.90
2019-02-24T14:22:39.697Z,16.80
2019-02-24T14:25:09.058Z,16.80
2019-02-24T14:27:38.199Z,16.90
2019-02-24T14:30:09.049Z,16.90
2019-02-24T14:32:38.494Z,16.90
2019-02-24T14:35:09.638Z,16.90
2019-02-24T14:37:39.657Z,16.80
2019-02-24T14:40:09.313Z,16.80
2019-02-24T14:42:38.759Z,16.90
2019-02-24T14:45:11.008Z,16.90
2019-02-24T14:47:40.550Z,16.90
2019-02-24T14:50:10.222Z,16.90
2019-02-24T14:52:39.318Z,16.90
2019-02-24T14:55:08.701Z,17.00
2019-02-24T14:57:38.366Z,17.00
2019-02-24T15:00:09.398Z,17.00
2019-02-24T15:02:42.517Z,17.00
2019-02-24T15:05:10.708Z,17.00
2019-02-24T15:07:40.539Z,17.00
2019-02-24T15:10:13.601Z,17.00
2019-02-24T15:12:43.129Z,17.00
2019-02-24T15:15:14.778Z,17.00
2019-02-24T15:17:44.147Z,17.00
2019-02-24T15:20:18.387Z,17.00
2019-02-24T15:22:47.954Z,16.90
2019-02-24T15:25:17.449Z,17.00
2019-02-24T15:27:46.775Z,16.90
2019-02-24T15:30:25.370Z,16.90
2019-02-24T15:32:54.801Z,16.90
2019-02-24T15:35:24.062Z,16.90
2019-02-24T15:37:53.539Z,16.80
2019-02-24T15:40:22.963Z,16.80
2019-02-24T15:42:52.178Z,16.80
2019-02-24T15:45:21.342Z,16.70
2019-02-24T15:47:51.126Z,16.70
2019-02-24T15:50:20.604Z,16.70
2019-02-24T15:52:49.967Z,16.70
2019-02-24T15:55:19.136Z,16.70
2019-02-24T15:57:48.205Z,16.60
2019-02-24T16:00:17.667Z,16.60
2019-02-24T16:02:47.226Z,16.60
2019-02-24T16:05:16.612Z,16.50
2019-02-24T16:07:45.963Z,16.50
2019-02-24T16:10:16.125Z,16.40
2019-02-24T16:12:45.362Z,16.40
2019-02-24T16:15:15.436Z,16.40
2019-02-24T16:17:44.683Z,16.40
2019-02-24T16:20:16.361Z,16.40
2019-02-24T16:22:46.068Z,16.40
2019-02-24T16:25:15.395Z,16.30
2019-02-24T16:27:44.786Z,16.30
2019-02-24T16:30:14.401Z,16.30
2019-02-24T16:32:43.805Z,16.30
2019-02-24T16:35:14.436Z,16.20
2019-02-24T16:37:44.239Z,16.10
2019-02-24T16:40:15.718Z,16.10
2019-02-24T16:42:45.128Z,16.10
2019-02-24T16:45:14.812Z,16.10
2019-02-24T16:47:44.132Z,17.20
2019-02-24T16:50:14.937Z,16.00
2019-02-24T16:52:44.723Z,15.90
2019-02-24T16:55:14.762Z,15.80
2019-02-24T16:57:44.115Z,15.80
2019-02-24T17:00:15.608Z,15.70
2019-02-24T17:02:45.257Z,15.70
2019-02-24T17:05:15.007Z,15.60
2019-02-24T17:07:44.080Z,15.50
2019-02-24T17:10:14.983Z,15.50
2019-02-24T17:12:44.164Z,15.40
2019-02-24T17:15:13.264Z,15.40
2019-02-24T17:17:42.661Z,15.30
2019-02-24T17:20:13.464Z,15.20
2019-02-24T17:22:42.514Z,15.20
2019-02-24T17:25:11.735Z,15.10
2019-02-24T17:27:40.778Z,15.10
2019-02-24T17:30:10.817Z,14.90
2019-02-24T17:32:39.937Z,14.90
2019-02-24T17:35:09.653Z,14.90
2019-02-24T17:37:38.739Z,14.80
2019-02-24T17:40:09.493Z,14.80
2019-02-24T17:42:38.472Z,14.80
2019-02-24T17:45:09.681Z,14.70
2019-02-24T17:47:38.936Z,14.70
2019-02-24T17:50:16.486Z,14.60
2019-02-24T17:52:41.394Z,14.50
2019-02-24T17:55:11.391Z,14.40
2019-02-24T17:57:40.820Z,14.40
2019-02-24T18:00:13.875Z,14.30
2019-02-24T18:02:42.976Z,14.30
2019-02-24T18:05:12.418Z,14.20
2019-02-24T18:07:41.789Z,14.20
2019-02-24T18:10:11.244Z,14.20
2019-02-24T18:12:40.503Z,14.10
2019-02-24T18:15:10.710Z,14.10
2019-02-24T18:17:40.572Z,14.00
2019-02-24T18:20:10.546Z,14.00
2019-02-24T18:22:39.987Z,13.90
2019-02-24T18:25:09.933Z,13.90
2019-02-24T18:27:39.108Z,13.90
2019-02-24T18:30:12.063Z,13.80
2019-02-24T18:32:42.199Z,13.70
2019-02-24T18:35:11.537Z,13.70
2019-02-24T18:37:40.653Z,13.60
2019-02-24T18:40:10.946Z,13.60
2019-02-24T18:42:40.067Z,13.60
2019-02-24T18:45:10.377Z,13.50
2019-02-24T18:47:39.939Z,13.50
2019-02-24T18:50:09.975Z,13.50
2019-02-24T18:52:39.114Z,13.50
2019-02-24T18:55:08.494Z,13.50
2019-02-24T18:57:38.351Z,13.50
2019-02-24T19:00:09.287Z,13.50
2019-02-24T19:02:38.608Z,13.50
2019-02-24T19:05:08.532Z,13.50
2019-02-24T19:07:37.702Z,13.40
2019-02-24T19:10:08.344Z,13.40
2019-02-24T19:12:37.645Z,13.40
2019-02-24T19:15:08.557Z,13.40
2019-02-24T19:17:38.080Z,13.40
2019-02-24T19:20:07.977Z,13.40
2019-02-24T19:22:37.088Z,13.40
2019-02-24T19:25:06.414Z,13.40
2019-02-24T19:27:35.474Z,13.40
2019-02-24T19:30:05.230Z,13.40
2019-02-24T19:32:34.792Z,13.40
2019-02-24T19:35:04.392Z,13.30
2019-02-24T19:37:33.809Z,13.30
2019-02-24T19:40:02.892Z,13.30
2019-02-24T19:42:32.372Z,13.30
2019-02-24T19:45:02.021Z,13.20
2019-02-24T19:47:31.365Z,13.20
2019-02-24T19:50:00.518Z,13.20
2019-02-24T19:52:29.590Z,13.20
2019-02-24T19:54:58.673Z,13.10
2019-02-24T19:57:27.729Z,13.10
2019-02-24T19:59:57.001Z,13.00
2019-02-24T20:02:26.092Z,13.00
2019-02-24T20:04:55.787Z,12.90
2019-02-24T20:07:28.244Z,12.90
2019-02-24T20:09:58.190Z,12.90
2019-02-24T20:12:27.378Z,12.80
2019-02-24T20:14:57.919Z,12.80
2019-02-24T20:17:27.218Z,12.80
2019-02-24T20:19:57.137Z,12.70
2019-02-24T20:22:26.769Z,12.70
2019-02-24T20:24:56.275Z,12.70
2019-02-24T20:27:25.485Z,12.60
2019-02-24T20:29:54.731Z,12.60
2019-02-24T20:32:24.706Z,12.60
2019-02-24T20:34:53.906Z,12.60
2019-02-24T20:37:24.619Z,12.50
2019-02-24T20:39:54.074Z,12.50
2019-02-24T20:42:23.505Z,12.40
2019-02-24T20:44:52.910Z,12.40
2019-02-24T20:47:22.068Z,12.40
2019-02-24T20:49:51.274Z,12.40
2019-02-24T20:52:20.552Z,12.40
2019-02-24T20:54:49.716Z,12.40
2019-02-24T20:57:18.863Z,12.40
2019-02-24T20:59:48.960Z,12.30
2019-02-24T21:02:18.376Z,12.30
2019-02-24T21:04:47.866Z,12.30
2019-02-24T21:07:20.340Z,12.20
2019-02-24T21:09:49.684Z,12.20
2019-02-24T21:12:19.424Z,12.20
2019-02-24T21:14:49.140Z,12.20
2019-02-24T21:17:21.427Z,12.10
2019-02-24T21:19:50.710Z,12.10
2019-02-24T21:22:20.002Z,12.00
2019-02-24T21:24:49.051Z,12.00
2019-02-24T21:27:18.851Z,12.00
2019-02-24T21:29:51.923Z,11.90
2019-02-24T21:32:21.635Z,11.90
2019-02-24T21:34:51.199Z,11.80
2019-02-24T21:37:20.522Z,11.80
2019-02-24T21:39:50.142Z,11.80
2019-02-24T21:42:19.504Z,11.90
2019-02-24T21:44:49.027Z,11.80
2019-02-24T21:47:18.412Z,11.80
2019-02-24T21:49:50.381Z,11.80
2019-02-24T21:52:20.614Z,11.70
2019-02-24T21:54:50.319Z,11.80
2019-02-24T21:57:19.935Z,11.70
2019-02-24T21:59:49.197Z,11.70
2019-02-24T22:02:18.522Z,11.60
2019-02-24T22:04:48.946Z,11.60
2019-02-24T22:07:22.749Z,11.60
2019-02-24T22:09:53.057Z,11.60
2019-02-24T22:12:22.898Z,11.60
2019-02-24T22:14:53.628Z,11.60
2019-02-24T22:17:23.350Z,11.60
2019-02-24T22:19:52.665Z,11.60
2019-02-24T22:22:22.399Z,11.60
2019-02-24T22:24:51.831Z,11.50
2019-02-24T22:27:21.083Z,11.50
2019-02-24T22:29:51.045Z,11.50
2019-02-24T22:32:22.015Z,11.50
2019-02-24T22:34:51.819Z,11.50
2019-02-24T22:37:21.403Z,11.50
2019-02-24T22:39:57.055Z,11.50
2019-02-24T22:42:26.793Z,11.50
2019-02-24T22:44:56.860Z,11.50
2019-02-24T22:47:26.288Z,11.40
2019-02-24T22:49:55.771Z,11.40
2019-02-24T22:52:25.032Z,11.40
2019-02-24T22:55:02.908Z,11.40
2019-02-24T22:57:32.344Z,11.40
2019-02-24T23:00:03.161Z,11.40
2019-02-24T23:02:32.492Z,11.30
2019-02-24T23:05:02.506Z,11.30
2019-02-24T23:07:31.763Z,11.30
2019-02-24T23:10:04.762Z,11.20
2019-02-24T23:12:34.200Z,11.20
2019-02-24T23:15:03.515Z,11.20
2019-02-24T23:17:33.064Z,11.10
2019-02-24T23:20:03.810Z,11.10
2019-02-24T23:22:33.026Z,11.10
2019-02-24T23:25:02.582Z,11.00
2019-02-24T23:27:32.247Z,11.00
2019-02-24T23:30:01.348Z,11.00
2019-02-24T23:32:33.600Z,11.00
2019-02-24T23:35:02.961Z,11.00
2019-02-24T23:37:32.897Z,10.90
2019-02-24T23:40:02.331Z,10.90
2019-02-24T23:42:31.759Z,10.80
2019-02-24T23:45:09.744Z,10.80
2019-02-24T23:47:33.082Z,10.80
2019-02-24T23:50:02.150Z,10.80
2019-02-24T23:52:31.301Z,10.80
2019-02-24T23:55:01.274Z,10.80
2019-02-24T23:57:30.412Z,10.70
